Huvudsida
METAR-TAF:

METAR-TAF

Flygplatser :

Haugesunds flygplats. Karmøy

Haugesunds, Norge

latitud: 59-21N, longitud: 005-13E, höjd: 2 m

Aktuellt väderrapport

Denna rapport gjordes för 19 minuter sedan, klockan 08:20 UTC
Vind 13 kt från nord/nordväst
Temperatur 7°C
Fuktighet 76%
Tryck 1030 hPa
Sikt 10 km eller mer
Få moln på en höjd av 1500 ft

METAR: ENHD 220820Z 34013KT 9999 FEW015 07/03 Q1030

Tid: 09:39 (08:39 UTC)

Väderprognos

Denna rapport gjordes för 3 timmar och 39 minuter sedan, klockan 05:00 UTC
Prognos gäller från 22 kl. 06 UTC till 22 kl. 15 UTC
Vind 10 kt från nord/nordväst
Sikt 10 km eller mer
Få moln på en höjd av 1500 ft
Spridda moln på en höjd av 3500 ft
lätta regnskurar
Blir
från 22 kl. 11 UTC till 22 kl. 13 UTC
Vind 6 kt varierande vindriktning

TAF: ENHD 220500Z 2206/2215 33010KT 9999 -SHRA FEW015 SCT035 BECMG 2211/2213 VRB06KT

Aktuella väderrapporter och prognoser från 4000 flygplatser (METAR- och TAF-rapporter).

De tillgängliga stationerna syns som gula och röda prickar på kartan.

För musen över prickarna för att se namnen på stationerna.

Klicka sedan för att få väderrapporter och prognoser.

För att ändra kartan: Klicka på de gröna knapparna med ett svart kors på för att zooma in; den gröna knappen med ett streck på för att zooma ut; eller på de gröna pilarna för angränsande kartor.


METAR-TAF: